createdAt,value
2023-01-03T00:00:53.359Z,96510
2023-01-03T00:02:02.054Z,96508
2023-01-03T00:03:11.697Z,96508
2023-01-03T00:04:19.419Z,96510
2023-01-03T00:05:28.012Z,96513
2023-01-03T00:06:36.709Z,96512
2023-01-03T00:07:45.354Z,96513
2023-01-03T00:08:55.028Z,96515
2023-01-03T00:10:03.693Z,96512
2023-01-03T00:11:12.373Z,96515
2023-01-03T00:12:25.619Z,96515
2023-01-03T00:13:32.752Z,96518
2023-01-03T00:14:42.420Z,96521
2023-01-03T00:15:52.143Z,96520
2023-01-03T00:16:59.898Z,96518
2023-01-03T00:18:09.594Z,96520
2023-01-03T00:19:18.140Z,96523
2023-01-03T00:20:27.798Z,96526
2023-01-03T00:21:37.501Z,96526
2023-01-03T00:22:45.192Z,96526
2023-01-03T00:23:53.875Z,96531
2023-01-03T00:25:03.555Z,96533
2023-01-03T00:26:12.215Z,96533
2023-01-03T00:27:21.877Z,96536
2023-01-03T00:28:29.535Z,96536
2023-01-03T00:29:38.236Z,96535
2023-01-03T00:30:47.928Z,96537
2023-01-03T00:31:56.590Z,96536
2023-01-03T00:33:05.255Z,96539
2023-01-03T00:34:14.967Z,96535
2023-01-03T00:35:24.636Z,96537
2023-01-03T00:36:35.342Z,96533
2023-01-03T00:37:42.994Z,96538
2023-01-03T00:38:51.698Z,96537
2023-01-03T00:40:01.352Z,96541
2023-01-03T00:41:09.038Z,96541
2023-01-03T00:42:17.736Z,96542
2023-01-03T00:43:26.390Z,96548
2023-01-03T00:44:35.065Z,96547
2023-01-03T00:45:44.772Z,96550
2023-01-03T00:46:54.506Z,96547
2023-01-03T00:48:03.189Z,96543
2023-01-03T00:49:11.836Z,96546
2023-01-03T00:50:21.553Z,96546
2023-01-03T00:51:30.198Z,96542
2023-01-03T00:52:38.954Z,96548
2023-01-03T00:53:47.673Z,96549
2023-01-03T00:54:57.328Z,96545
2023-01-03T00:56:07.032Z,96545
2023-01-03T00:57:16.699Z,96544
2023-01-03T00:58:25.473Z,96543
2023-01-03T00:59:34.142Z,96542
2023-01-03T01:00:43.808Z,96548
2023-01-03T01:01:52.585Z,96543
2023-01-03T01:03:02.346Z,96541
2023-01-03T01:04:11.869Z,96545
2023-01-03T01:05:20.549Z,96547
2023-01-03T01:06:30.253Z,96551
2023-01-03T01:07:38.879Z,96549
2023-01-03T01:08:48.596Z,96549
2023-01-03T01:09:58.334Z,96552
2023-01-03T01:11:06.030Z,96556
2023-01-03T01:12:14.700Z,96558
2023-01-03T01:13:24.375Z,96555
2023-01-03T01:14:33.037Z,96560
2023-01-03T01:15:42.789Z,96563
2023-01-03T01:16:52.442Z,96562
2023-01-03T01:18:01.136Z,96561
2023-01-03T01:19:10.809Z,96565
2023-01-03T01:20:18.548Z,96565
2023-01-03T01:21:27.279Z,96569
2023-01-03T01:22:36.057Z,96568
2023-01-03T01:23:44.634Z,96575
2023-01-03T01:24:54.252Z,96572
2023-01-03T01:26:02.914Z,96573
2023-01-03T01:27:11.611Z,96570
2023-01-03T01:28:21.323Z,96569
2023-01-03T01:29:29.983Z,96568
2023-01-03T01:30:39.682Z,96574
2023-01-03T01:31:49.313Z,96573
2023-01-03T01:32:58.003Z,96584
2023-01-03T01:34:07.789Z,96582
2023-01-03T01:35:16.470Z,96581
2023-01-03T01:36:26.132Z,96583
2023-01-03T01:37:35.816Z,96581
2023-01-03T01:38:44.552Z,96581
2023-01-03T01:39:53.205Z,96586
2023-01-03T01:41:02.893Z,96581
2023-01-03T01:42:16.679Z,96584
2023-01-03T01:43:23.252Z,96581
2023-01-03T01:44:33.015Z,96583
2023-01-03T01:45:41.701Z,96586
2023-01-03T01:46:51.499Z,96585
2023-01-03T01:47:58.148Z,96589
2023-01-03T01:49:06.842Z,96583
2023-01-03T01:50:16.562Z,96577
2023-01-03T01:51:26.283Z,96585
2023-01-03T01:52:35.969Z,96581
2023-01-03T01:53:43.641Z,96582
2023-01-03T01:54:52.534Z,96581
2023-01-03T01:56:02.179Z,96577
2023-01-03T01:57:10.854Z,96578
2023-01-03T01:58:19.501Z,96581
2023-01-03T01:59:29.229Z,96577
2023-01-03T02:00:38.912Z,96577
2023-01-03T02:01:48.771Z,96585
2023-01-03T02:02:57.580Z,96592
2023-01-03T02:04:06.025Z,96594
2023-01-03T02:05:15.702Z,96598
2023-01-03T02:06:25.365Z,96599
2023-01-03T02:07:34.068Z,96601
2023-01-03T02:08:43.783Z,96604
2023-01-03T02:09:53.481Z,96602
2023-01-03T02:11:03.166Z,96601
2023-01-03T02:12:12.808Z,96604
2023-01-03T02:13:21.510Z,96604
2023-01-03T02:14:31.183Z,96598
2023-01-03T02:15:39.925Z,96601
2023-01-03T02:16:48.588Z,96602
2023-01-03T02:17:57.874Z,96600
2023-01-03T02:19:07.584Z,96602
2023-01-03T02:20:17.265Z,96602
2023-01-03T02:21:26.989Z,96601
2023-01-03T02:22:36.721Z,96606
2023-01-03T02:23:46.369Z,96605
2023-01-03T02:24:55.155Z,96609
2023-01-03T02:26:04.831Z,96612
2023-01-03T02:27:14.570Z,96613
2023-01-03T02:28:23.261Z,96616
2023-01-03T02:29:32.926Z,96611
2023-01-03T02:30:41.596Z,96606
2023-01-03T02:31:50.261Z,96604
2023-01-03T02:32:59.984Z,96609
2023-01-03T02:34:09.899Z,96612
2023-01-03T02:35:18.623Z,96606
2023-01-03T02:36:27.291Z,96611
2023-01-03T02:37:35.924Z,96610
2023-01-03T02:38:45.596Z,96609
2023-01-03T02:39:55.259Z,96607
2023-01-03T02:41:03.916Z,96607
2023-01-03T02:42:13.659Z,96607
2023-01-03T02:43:23.551Z,96608
2023-01-03T02:44:33.059Z,96611
2023-01-03T02:45:41.748Z,96604
2023-01-03T02:46:51.445Z,96614
2023-01-03T02:48:01.111Z,96609
2023-01-03T02:49:08.776Z,96605
2023-01-03T02:50:18.467Z,96607
2023-01-03T02:51:26.103Z,96612
2023-01-03T02:52:35.797Z,96612
2023-01-03T02:53:46.540Z,96612
2023-01-03T02:54:55.191Z,96607
2023-01-03T02:56:04.853Z,96614
2023-01-03T02:57:13.552Z,96613
2023-01-03T02:58:23.263Z,96614
2023-01-03T02:59:33.019Z,96611
2023-01-03T03:00:41.680Z,96613
2023-01-03T03:01:50.439Z,96615
2023-01-03T03:03:00.162Z,96613
2023-01-03T03:04:07.734Z,96618
2023-01-03T03:05:16.431Z,96616
2023-01-03T03:06:26.094Z,96615
2023-01-03T03:07:34.744Z,96608
2023-01-03T03:08:44.446Z,96616
2023-01-03T03:09:54.134Z,96611
2023-01-03T03:11:02.870Z,96618
2023-01-03T03:12:12.579Z,96615
2023-01-03T03:13:21.292Z,96615
2023-01-03T03:14:29.985Z,96619
2023-01-03T03:15:39.716Z,96619
2023-01-03T03:16:48.337Z,96620
2023-01-03T03:17:58.006Z,96617
2023-01-03T03:19:07.697Z,96618
2023-01-03T03:20:16.389Z,96611
2023-01-03T03:21:26.102Z,96609
2023-01-03T03:22:34.832Z,96610
2023-01-03T03:23:43.528Z,96605
2023-01-03T03:24:52.207Z,96609
2023-01-03T03:26:01.885Z,96604
2023-01-03T03:27:11.551Z,96602
2023-01-03T03:28:21.253Z,96611
2023-01-03T03:29:29.993Z,96609
2023-01-03T03:30:39.661Z,96605
2023-01-03T03:31:48.479Z,96606
2023-01-03T03:32:58.048Z,96603
2023-01-03T03:34:07.799Z,96608
2023-01-03T03:35:17.516Z,96613
2023-01-03T03:36:27.186Z,96611
2023-01-03T03:37:34.872Z,96613
2023-01-03T03:38:42.532Z,96613
2023-01-03T03:39:52.226Z,96608
2023-01-03T03:41:00.879Z,96615
2023-01-03T03:42:09.582Z,96611
2023-01-03T03:43:19.243Z,96611
2023-01-03T03:44:27.930Z,96606
2023-01-03T03:45:37.647Z,96608
2023-01-03T03:46:52.568Z,96610
2023-01-03T03:47:56.055Z,96609
2023-01-03T03:49:05.869Z,96610
2023-01-03T03:50:14.576Z,96610
2023-01-03T03:51:23.268Z,96605
2023-01-03T03:52:31.936Z,96607
2023-01-03T03:53:41.606Z,96602
2023-01-03T03:54:51.280Z,96604
2023-01-03T03:55:59.969Z,96603
2023-01-03T03:57:08.660Z,96599
2023-01-03T03:58:19.332Z,96593
2023-01-03T03:59:28.042Z,96596
2023-01-03T04:00:37.721Z,96593
2023-01-03T04:01:46.505Z,96596
2023-01-03T04:02:56.242Z,96600
2023-01-03T04:04:05.934Z,96596
2023-01-03T04:05:14.459Z,96595
2023-01-03T04:06:24.098Z,96592
2023-01-03T04:07:33.779Z,96596
2023-01-03T04:08:43.506Z,96601
2023-01-03T04:09:53.198Z,96603
2023-01-03T04:11:01.840Z,96607
2023-01-03T04:12:10.493Z,96600
2023-01-03T04:13:20.152Z,96598
2023-01-03T04:14:28.833Z,96597
2023-01-03T04:15:37.482Z,96601
2023-01-03T04:16:47.250Z,96606
2023-01-03T04:17:55.814Z,96606
2023-01-03T04:19:05.555Z,96608
2023-01-03T04:20:14.256Z,96607
2023-01-03T04:21:22.877Z,96606
2023-01-03T04:22:32.565Z,96608
2023-01-03T04:23:40.216Z,96602
2023-01-03T04:24:49.897Z,96602
2023-01-03T04:25:59.568Z,96603
2023-01-03T04:27:08.229Z,96608
2023-01-03T04:28:17.892Z,96600
2023-01-03T04:29:27.620Z,96597
2023-01-03T04:30:38.234Z,96601
2023-01-03T04:31:47.982Z,96599
2023-01-03T04:32:57.608Z,96597
2023-01-03T04:34:06.371Z,96599
2023-01-03T04:35:16.066Z,96600
2023-01-03T04:36:23.771Z,96601
2023-01-03T04:37:33.444Z,96605
2023-01-03T04:38:42.162Z,96604
2023-01-03T04:39:51.837Z,96608
2023-01-03T04:41:01.528Z,96608
2023-01-03T04:42:10.249Z,96608
2023-01-03T04:43:19.941Z,96610
2023-01-03T04:44:29.648Z,96612
2023-01-03T04:45:38.331Z,96612
2023-01-03T04:46:52.689Z,96611
2023-01-03T04:47:57.632Z,96610
2023-01-03T04:49:06.370Z,96615
2023-01-03T04:50:15.091Z,96612
2023-01-03T04:51:24.862Z,96619
2023-01-03T04:52:34.578Z,96620
2023-01-03T04:53:44.213Z,96623
2023-01-03T04:54:53.910Z,96620
2023-01-03T04:56:03.582Z,96619
2023-01-03T04:57:13.273Z,96620
2023-01-03T04:58:21.960Z,96622
2023-01-03T04:59:31.620Z,96616
2023-01-03T05:00:40.407Z,96622
2023-01-03T05:01:50.235Z,96618
2023-01-03T05:02:59.866Z,96614
2023-01-03T05:04:09.656Z,96619
2023-01-03T05:05:19.277Z,96620
2023-01-03T05:06:28.275Z,96614
2023-01-03T05:07:38.039Z,96616
2023-01-03T05:08:47.597Z,96612
2023-01-03T05:09:57.375Z,96617
2023-01-03T05:11:07.040Z,96616
2023-01-03T05:12:15.785Z,96617
2023-01-03T05:13:25.519Z,96614
2023-01-03T05:14:35.188Z,96616
2023-01-03T05:15:45.427Z,96620
2023-01-03T05:16:55.489Z,96618
2023-01-03T05:18:05.173Z,96620
2023-01-03T05:19:13.858Z,96620
2023-01-03T05:20:23.629Z,96624
2023-01-03T05:21:31.272Z,96626
2023-01-03T05:22:39.943Z,96625
2023-01-03T05:23:49.676Z,96628
2023-01-03T05:24:57.322Z,96629
2023-01-03T05:26:06.000Z,96631
2023-01-03T05:27:14.655Z,96633
2023-01-03T05:28:24.336Z,96635
2023-01-03T05:29:34.022Z,96636
2023-01-03T05:30:42.746Z,96640
2023-01-03T05:31:52.538Z,96643
2023-01-03T05:33:02.232Z,96648
2023-01-03T05:34:11.918Z,96647
2023-01-03T05:35:21.611Z,96649
2023-01-03T05:36:31.285Z,96650
2023-01-03T05:37:40.012Z,96650
2023-01-03T05:38:49.663Z,96652
2023-01-03T05:39:58.379Z,96656
2023-01-03T05:41:08.102Z,96655
2023-01-03T05:42:17.793Z,96652
2023-01-03T05:43:27.484Z,96654
2023-01-03T05:44:36.305Z,96652
2023-01-03T05:45:46.033Z,96650
2023-01-03T05:46:54.693Z,96651
2023-01-03T05:48:04.408Z,96653
2023-01-03T05:49:12.122Z,96651
2023-01-03T05:50:20.952Z,96647
2023-01-03T05:51:30.625Z,96647
2023-01-03T05:52:38.360Z,96646
2023-01-03T05:53:48.034Z,96645
2023-01-03T05:54:57.937Z,96648
2023-01-03T05:56:07.608Z,96645
2023-01-03T05:57:17.252Z,96650
2023-01-03T05:58:25.927Z,96651
2023-01-03T05:59:34.574Z,96654
2023-01-03T06:00:44.241Z,96656
2023-01-03T06:01:52.052Z,96657
2023-01-03T06:03:00.587Z,96659
2023-01-03T06:04:10.300Z,96660
2023-01-03T06:05:19.939Z,96659
2023-01-03T06:06:29.631Z,96665
2023-01-03T06:07:37.297Z,96664
2023-01-03T06:08:46.973Z,96664
2023-01-03T06:09:56.675Z,96661
2023-01-03T06:11:04.352Z,96658
2023-01-03T06:12:13.052Z,96659
2023-01-03T06:13:22.702Z,96662
2023-01-03T06:14:32.371Z,96659
2023-01-03T06:15:42.125Z,96661
2023-01-03T06:16:50.822Z,96663
2023-01-03T06:18:00.452Z,96660
2023-01-03T06:19:10.133Z,96661
2023-01-03T06:20:17.811Z,96660
2023-01-03T06:21:27.503Z,96663
2023-01-03T06:22:36.179Z,96663
2023-01-03T06:23:45.865Z,96665
2023-01-03T06:24:55.545Z,96667
2023-01-03T06:26:04.269Z,96667
2023-01-03T06:27:12.939Z,96672
2023-01-03T06:28:22.628Z,96671
2023-01-03T06:29:32.271Z,96671
2023-01-03T06:30:41.002Z,96675
2023-01-03T06:31:50.609Z,96674
2023-01-03T06:33:00.299Z,96676
2023-01-03T06:34:09.994Z,96679
2023-01-03T06:35:19.668Z,96680
2023-01-03T06:36:29.347Z,96679
2023-01-03T06:37:39.027Z,96679
2023-01-03T06:38:46.725Z,96677
2023-01-03T06:39:56.437Z,96684
2023-01-03T06:41:05.109Z,96677
2023-01-03T06:42:13.769Z,96677
2023-01-03T06:43:23.446Z,96676
2023-01-03T06:44:31.167Z,96676
2023-01-03T06:45:40.818Z,96682
2023-01-03T06:46:50.591Z,96678
2023-01-03T06:48:00.182Z,96676
2023-01-03T06:49:09.863Z,96677
2023-01-03T06:50:18.532Z,96674
2023-01-03T06:51:27.211Z,96679
2023-01-03T06:52:36.885Z,96680
2023-01-03T06:53:45.544Z,96677
2023-01-03T06:54:55.230Z,96677
2023-01-03T06:56:03.899Z,96673
2023-01-03T06:57:26.169Z,96682
2023-01-03T06:58:23.207Z,96681
2023-01-03T06:59:31.891Z,96689
2023-01-03T07:00:40.567Z,96690
2023-01-03T07:01:50.401Z,96693
2023-01-03T07:03:03.139Z,96697
2023-01-03T07:04:10.749Z,96697
2023-01-03T07:05:20.340Z,96696
2023-01-03T07:06:28.986Z,96697
2023-01-03T07:07:39.662Z,96698
2023-01-03T07:08:48.845Z,96700
2023-01-03T07:09:56.980Z,96694
2023-01-03T07:11:05.661Z,96700
2023-01-03T07:12:15.329Z,96699
2023-01-03T07:13:25.026Z,96702
2023-01-03T07:14:34.709Z,96699
2023-01-03T07:15:43.451Z,96699
2023-01-03T07:16:53.064Z,96707
2023-01-03T07:18:01.778Z,96707
2023-01-03T07:19:11.514Z,96702
2023-01-03T07:20:20.169Z,96706
2023-01-03T07:21:28.835Z,96707
2023-01-03T07:22:38.498Z,96710
2023-01-03T07:23:47.176Z,96710
2023-01-03T07:24:55.875Z,96712
2023-01-03T07:26:05.528Z,96711
2023-01-03T07:27:14.213Z,96712
2023-01-03T07:28:23.890Z,96715
2023-01-03T07:29:33.522Z,96714
2023-01-03T07:30:43.219Z,96718
2023-01-03T07:31:53.003Z,96718
2023-01-03T07:33:02.609Z,96717
2023-01-03T07:34:11.346Z,96719
2023-01-03T07:35:21.033Z,96722
2023-01-03T07:36:28.741Z,96722
2023-01-03T07:37:37.410Z,96725
2023-01-03T07:38:46.082Z,96724
2023-01-03T07:39:54.753Z,96726
2023-01-03T07:41:04.424Z,96730
2023-01-03T07:42:14.125Z,96730
2023-01-03T07:43:22.776Z,96729
2023-01-03T07:44:32.461Z,96733
2023-01-03T07:45:42.148Z,96736
2023-01-03T07:46:51.924Z,96733
2023-01-03T07:48:00.540Z,96735
2023-01-03T07:49:11.767Z,96734
2023-01-03T07:50:17.909Z,96735
2023-01-03T07:51:25.570Z,96736
2023-01-03T07:52:35.246Z,96736
2023-01-03T07:53:44.969Z,96739
2023-01-03T07:54:53.645Z,96736
2023-01-03T07:56:04.424Z,96733
2023-01-03T07:57:12.970Z,96733
2023-01-03T07:58:21.612Z,96738
2023-01-03T07:59:31.326Z,96739
2023-01-03T08:00:38.978Z,96741
2023-01-03T08:01:48.772Z,96743
2023-01-03T08:02:58.453Z,96745
2023-01-03T08:04:09.007Z,96743
2023-01-03T08:05:18.761Z,96749
2023-01-03T08:06:28.335Z,96750
2023-01-03T08:07:37.018Z,96750
2023-01-03T08:08:46.717Z,96751
2023-01-03T08:09:55.434Z,96754
2023-01-03T08:11:04.158Z,96753
2023-01-03T08:12:13.848Z,96756
2023-01-03T08:13:23.556Z,96754
2023-01-03T08:14:32.342Z,96755
2023-01-03T08:15:42.090Z,96758
2023-01-03T08:16:50.742Z,96757
2023-01-03T08:18:00.421Z,96755
2023-01-03T08:19:08.084Z,96758
2023-01-03T08:20:16.770Z,96757
2023-01-03T08:21:26.431Z,96760
2023-01-03T08:22:36.346Z,96759
2023-01-03T08:23:46.023Z,96763
2023-01-03T08:24:55.677Z,96765
2023-01-03T08:26:04.340Z,96769
2023-01-03T08:27:14.037Z,96775
2023-01-03T08:28:21.734Z,96776
2023-01-03T08:29:30.432Z,96779
2023-01-03T08:30:40.086Z,96780
2023-01-03T08:31:47.947Z,96781
2023-01-03T08:32:56.494Z,96778
2023-01-03T08:34:08.936Z,96780
2023-01-03T08:35:15.812Z,96779
2023-01-03T08:36:25.519Z,96784
2023-01-03T08:37:35.204Z,96782
2023-01-03T08:38:43.876Z,96788
2023-01-03T08:39:53.642Z,96786
2023-01-03T08:41:03.325Z,96787
2023-01-03T08:42:12.200Z,96789
2023-01-03T08:43:21.913Z,96791
2023-01-03T08:44:31.580Z,96791
2023-01-03T08:45:41.758Z,96789
2023-01-03T08:46:50.536Z,96790
2023-01-03T08:47:59.263Z,96791
2023-01-03T08:49:06.950Z,96787
2023-01-03T08:50:16.648Z,96784
2023-01-03T08:51:26.599Z,96787
2023-01-03T08:52:35.608Z,96793
2023-01-03T08:53:45.092Z,96794
2023-01-03T08:54:52.814Z,96793
2023-01-03T08:56:02.554Z,96795
2023-01-03T08:57:12.265Z,96795
2023-01-03T08:58:20.946Z,96789
2023-01-03T08:59:29.591Z,96795
2023-01-03T09:00:39.316Z,96797
2023-01-03T09:01:49.176Z,96799
2023-01-03T09:02:58.970Z,96802
2023-01-03T09:04:07.572Z,96808
2023-01-03T09:05:16.228Z,96809
2023-01-03T09:06:25.988Z,96807
2023-01-03T09:07:33.679Z,96809
2023-01-03T09:08:43.427Z,96814
2023-01-03T09:09:53.080Z,96808
2023-01-03T09:11:01.747Z,96813
2023-01-03T09:12:10.450Z,96814
2023-01-03T09:13:19.112Z,96810
2023-01-03T09:14:28.820Z,96811
2023-01-03T09:15:38.535Z,96810
2023-01-03T09:16:49.393Z,96810
2023-01-03T09:17:55.918Z,96810
2023-01-03T09:19:05.574Z,96814
2023-01-03T09:20:14.268Z,96820
2023-01-03T09:21:22.955Z,96819
2023-01-03T09:22:32.609Z,96820
2023-01-03T09:23:41.281Z,96824
2023-01-03T09:24:50.964Z,96822
2023-01-03T09:25:59.640Z,96821
2023-01-03T09:27:08.315Z,96819
2023-01-03T09:28:17.969Z,96824
2023-01-03T09:29:25.652Z,96824
2023-01-03T09:30:34.315Z,96828
2023-01-03T09:31:45.624Z,96823
2023-01-03T09:32:51.691Z,96824
2023-01-03T09:34:01.396Z,96821
2023-01-03T09:35:09.108Z,96823
2023-01-03T09:36:17.761Z,96819
2023-01-03T09:37:27.436Z,96818
2023-01-03T09:38:36.109Z,96816
2023-01-03T09:39:45.785Z,96822
2023-01-03T09:40:55.490Z,96823
2023-01-03T09:42:04.201Z,96824
2023-01-03T09:43:13.992Z,96829
2023-01-03T09:44:23.659Z,96829
2023-01-03T09:45:33.336Z,96832
2023-01-03T09:46:43.051Z,96829
2023-01-03T09:47:51.660Z,96834
2023-01-03T09:49:00.367Z,96832
2023-01-03T09:51:25.749Z,96829
2023-01-03T09:52:31.381Z,96826
2023-01-03T09:53:40.040Z,96830
2023-01-03T09:54:48.732Z,96823
2023-01-03T09:55:58.440Z,96825
2023-01-03T09:57:06.098Z,96822
2023-01-03T09:58:15.783Z,96822
2023-01-03T09:59:25.471Z,96822
2023-01-03T10:00:35.213Z,96821
2023-01-03T10:01:45.132Z,96816
2023-01-03T10:02:53.784Z,96816
2023-01-03T10:04:02.250Z,96814
2023-01-03T10:05:11.937Z,96812
2023-01-03T10:06:20.618Z,96816
2023-01-03T10:07:29.270Z,96815
2023-01-03T10:08:37.976Z,96816
2023-01-03T10:09:47.712Z,96808
2023-01-03T10:10:57.354Z,96810
2023-01-03T10:12:06.078Z,96813
2023-01-03T10:13:19.857Z,96810
2023-01-03T10:14:25.316Z,96807
2023-01-03T10:15:34.971Z,96810
2023-01-03T10:16:43.828Z,96807
2023-01-03T10:17:52.453Z,96804
2023-01-03T10:19:02.128Z,96804
2023-01-03T10:20:11.844Z,96803
2023-01-03T10:21:21.509Z,96807
2023-01-03T10:22:30.154Z,96806
2023-01-03T10:23:39.846Z,96813
2023-01-03T10:24:48.506Z,96808
2023-01-03T10:25:57.192Z,96811
2023-01-03T10:27:05.908Z,96809
2023-01-03T10:28:14.587Z,96806
2023-01-03T10:29:24.301Z,96810
2023-01-03T10:30:32.971Z,96805
2023-01-03T10:31:41.745Z,96803
2023-01-03T10:32:51.353Z,96802
2023-01-03T10:34:01.139Z,96804
2023-01-03T10:35:09.940Z,96805
2023-01-03T10:36:19.615Z,96805
2023-01-03T10:37:29.331Z,96800
2023-01-03T10:38:45.096Z,96800
2023-01-03T10:39:49.672Z,96796
2023-01-03T10:40:58.408Z,96800
2023-01-03T10:42:08.125Z,96798
2023-01-03T10:43:15.900Z,96798
2023-01-03T10:44:25.601Z,96796
2023-01-03T10:45:40.006Z,96796
2023-01-03T10:46:44.967Z,96792
2023-01-03T10:47:54.601Z,96795
2023-01-03T10:50:13.963Z,96789
2023-01-03T10:51:22.817Z,96791
2023-01-03T10:52:31.548Z,96790
2023-01-03T10:53:41.295Z,96787
2023-01-03T10:54:50.102Z,96787
2023-01-03T10:55:58.778Z,96787
2023-01-03T10:57:08.439Z,96784
2023-01-03T10:58:17.343Z,96791
2023-01-03T10:59:27.015Z,96787
2023-01-03T11:00:36.682Z,96787
2023-01-03T11:01:45.454Z,96790
2023-01-03T11:02:55.130Z,96791
2023-01-03T11:04:02.902Z,96796
2023-01-03T11:05:12.795Z,96795
2023-01-03T11:06:22.343Z,96790
2023-01-03T11:07:32.136Z,96792
2023-01-03T11:08:42.030Z,96791
2023-01-03T11:09:51.443Z,96788
2023-01-03T11:10:58.376Z,96789
2023-01-03T11:12:08.069Z,96788
2023-01-03T11:13:15.742Z,96786
2023-01-03T11:14:24.569Z,96785
2023-01-03T11:15:38.647Z,96783
2023-01-03T11:16:43.087Z,96778
2023-01-03T11:17:52.919Z,96778
2023-01-03T11:19:01.673Z,96778
2023-01-03T11:20:11.382Z,96777
2023-01-03T11:21:21.099Z,96775
2023-01-03T11:22:32.298Z,96776
2023-01-03T11:23:38.447Z,96774
2023-01-03T11:24:47.130Z,96770
2023-01-03T11:25:55.786Z,96770
2023-01-03T11:27:05.454Z,96771
2023-01-03T11:28:16.369Z,96773
2023-01-03T11:29:23.794Z,96768
2023-01-03T11:30:32.697Z,96769
2023-01-03T11:31:40.591Z,96765
2023-01-03T11:32:49.384Z,96771
2023-01-03T11:33:59.154Z,96772
2023-01-03T11:35:24.979Z,96771
2023-01-03T11:36:18.878Z,96767
2023-01-03T11:37:26.535Z,96770
2023-01-03T11:38:36.227Z,96770
2023-01-03T11:39:45.916Z,96769
2023-01-03T11:40:54.637Z,96772
2023-01-03T11:42:03.389Z,96773
2023-01-03T11:43:12.040Z,96773
2023-01-03T11:44:20.718Z,96773
2023-01-03T11:45:30.391Z,96772
2023-01-03T11:46:39.124Z,96773
2023-01-03T11:47:48.732Z,96771
2023-01-03T11:48:57.540Z,96775
2023-01-03T11:50:07.219Z,96773
2023-01-03T11:51:16.978Z,96770
2023-01-03T11:52:26.775Z,96766
2023-01-03T11:53:35.483Z,96767
2023-01-03T11:54:49.401Z,96767
2023-01-03T11:55:55.912Z,96765
2023-01-03T11:57:04.555Z,96760
2023-01-03T11:58:14.334Z,96757
2023-01-03T11:59:23.004Z,96761
2023-01-03T12:00:32.664Z,96763
2023-01-03T12:01:41.605Z,96763
2023-01-03T12:02:51.370Z,96762
2023-01-03T12:04:00.319Z,96760
2023-01-03T12:05:08.847Z,96755
2023-01-03T12:06:20.539Z,96755
2023-01-03T12:08:39.899Z,96747
2023-01-03T12:09:48.544Z,96745
2023-01-03T12:10:58.195Z,96745
2023-01-03T12:12:07.876Z,96751
2023-01-03T12:13:17.625Z,96749
2023-01-03T12:14:28.301Z,96750
2023-01-03T12:15:37.988Z,96744
2023-01-03T12:16:45.681Z,96747
2023-01-03T12:17:54.376Z,96750
2023-01-03T12:19:06.979Z,96752
2023-01-03T12:20:12.887Z,96748
2023-01-03T12:21:22.498Z,96750
2023-01-03T12:22:30.175Z,96752
2023-01-03T12:23:39.859Z,96753
2023-01-03T12:24:49.556Z,96752
2023-01-03T12:25:58.223Z,96750
2023-01-03T12:27:07.942Z,96755
2023-01-03T12:28:17.612Z,96755
2023-01-03T12:29:27.256Z,96751
2023-01-03T12:30:36.956Z,96750
2023-01-03T12:31:45.668Z,96750
2023-01-03T12:32:54.299Z,96749
2023-01-03T12:34:04.148Z,96747
2023-01-03T12:35:12.860Z,96742
2023-01-03T12:36:21.548Z,96746
2023-01-03T12:37:31.248Z,96744
2023-01-03T12:38:40.979Z,96746
2023-01-03T12:39:50.643Z,96740
2023-01-03T12:40:59.305Z,96744
2023-01-03T12:42:09.086Z,96749
2023-01-03T12:43:17.746Z,96744
2023-01-03T12:44:26.452Z,96742
2023-01-03T12:45:36.155Z,96738
2023-01-03T12:46:43.893Z,96741
2023-01-03T12:47:53.495Z,96738
2023-01-03T12:49:03.187Z,96741
2023-01-03T12:50:11.926Z,96741
2023-01-03T12:51:21.630Z,96739
2023-01-03T12:52:31.250Z,96737
2023-01-03T12:53:39.971Z,96736
2023-01-03T12:54:50.621Z,96741
2023-01-03T12:55:59.288Z,96739
2023-01-03T12:57:09.012Z,96737
2023-01-03T12:58:17.664Z,96740
2023-01-03T12:59:26.349Z,96734
2023-01-03T13:00:36.025Z,96737
2023-01-03T13:01:44.780Z,96739
2023-01-03T13:02:54.624Z,96739
2023-01-03T13:04:04.129Z,96737
2023-01-03T13:05:11.751Z,96737
2023-01-03T13:06:21.424Z,96731
2023-01-03T13:07:30.219Z,96730
2023-01-03T13:08:39.870Z,96728
2023-01-03T13:09:48.536Z,96727
2023-01-03T13:10:57.250Z,96721
2023-01-03T13:12:07.001Z,96724
2023-01-03T13:13:16.718Z,96726
2023-01-03T13:14:25.401Z,96724
2023-01-03T13:15:36.857Z,96731
2023-01-03T13:16:44.919Z,96726
2023-01-03T13:17:53.455Z,96726
2023-01-03T13:19:03.139Z,96726
2023-01-03T13:20:10.800Z,96726
2023-01-03T13:21:19.463Z,96729
2023-01-03T13:22:29.186Z,96729
2023-01-03T13:23:38.941Z,96733
2023-01-03T13:24:47.579Z,96729
2023-01-03T13:25:57.267Z,96731
2023-01-03T13:27:05.956Z,96734
2023-01-03T13:28:15.691Z,96735
2023-01-03T13:29:23.353Z,96736
2023-01-03T13:30:32.048Z,96734
2023-01-03T13:31:41.769Z,96731
2023-01-03T13:32:50.401Z,96735
2023-01-03T13:33:58.138Z,96729
2023-01-03T13:35:06.794Z,96731
2023-01-03T13:36:16.456Z,96729
2023-01-03T13:37:26.171Z,96729
2023-01-03T13:38:34.976Z,96732
2023-01-03T13:39:43.746Z,96726
2023-01-03T13:41:16.961Z,96724
2023-01-03T13:42:04.209Z,96722
2023-01-03T13:43:11.985Z,96720
2023-01-03T13:44:20.752Z,96717
2023-01-03T13:45:28.541Z,96724
2023-01-03T13:46:38.276Z,96726
2023-01-03T13:47:46.889Z,96729
2023-01-03T13:48:56.556Z,96730
2023-01-03T13:50:06.461Z,96730
2023-01-03T13:51:15.225Z,96735
2023-01-03T13:52:23.904Z,96738
2023-01-03T13:53:31.617Z,96741
2023-01-03T13:54:40.293Z,96742
2023-01-03T13:55:54.751Z,96741
2023-01-03T13:56:59.633Z,96741
2023-01-03T13:58:08.342Z,96741
2023-01-03T13:59:18.015Z,96738
2023-01-03T14:00:25.656Z,96738
2023-01-03T14:01:35.391Z,96741
2023-01-03T14:02:44.089Z,96739
2023-01-03T14:03:53.682Z,96738
2023-01-03T14:05:03.366Z,96739
2023-01-03T14:06:13.032Z,96743
2023-01-03T14:07:22.741Z,96742
2023-01-03T14:08:35.502Z,96740
2023-01-03T14:09:41.096Z,96741
2023-01-03T14:10:49.773Z,96742
2023-01-03T14:11:58.624Z,96742
2023-01-03T14:13:08.302Z,96742
2023-01-03T14:14:18.047Z,96746
2023-01-03T14:15:27.135Z,96750
2023-01-03T14:16:36.393Z,96750
2023-01-03T14:17:46.034Z,96751
2023-01-03T14:18:53.688Z,96752
2023-01-03T14:20:02.369Z,96747
2023-01-03T14:21:16.473Z,96752
2023-01-03T14:22:29.072Z,96752
2023-01-03T14:23:58.780Z,96756
2023-01-03T14:24:42.058Z,96753
2023-01-03T14:25:50.745Z,96754
2023-01-03T14:27:00.453Z,96755
2023-01-03T14:28:08.114Z,96753
2023-01-03T14:29:17.783Z,96755
2023-01-03T14:30:26.445Z,96750
2023-01-03T14:31:36.275Z,96756
2023-01-03T14:32:45.883Z,96749
2023-01-03T14:33:54.558Z,96752
2023-01-03T14:35:03.266Z,96752
2023-01-03T14:36:12.907Z,96756
2023-01-03T14:37:20.603Z,96757
2023-01-03T14:38:30.292Z,96756
2023-01-03T14:40:39.343Z,96757
2023-01-03T14:41:46.999Z,96757
2023-01-03T14:42:55.746Z,96758
2023-01-03T14:44:05.426Z,96761
2023-01-03T14:45:13.072Z,96762
2023-01-03T14:46:21.796Z,96761
2023-01-03T14:47:31.404Z,96768
2023-01-03T14:48:39.154Z,96761
2023-01-03T14:49:47.828Z,96763
2023-01-03T14:50:56.482Z,96763
2023-01-03T14:52:06.144Z,96765
2023-01-03T14:53:15.806Z,96764
2023-01-03T14:54:24.512Z,96766
2023-01-03T14:55:33.162Z,96766